Montacute, United Kingdom
Current Conditions -  °F | °C
As of 1:50 AM on Monday 22 Dec 2014 (Local Time) from EGDY Reporting Station
Haze Haze  
Wind Chill: 54°   Ceiling: 1200
Heat Index: 54°   Visibility: 6mi
Dew Point: 50°   Wind: 13mph
Humidity: 88%   Direction: 220°SW
Pressure: 30.18"   Gusts: NA
Location:  50.95°N, 2.72°W
Report Text: EGDY 220150Z AUTO 22011KT 9000 HZ OVC012/// 12/10 Q1022
Loading
Personal Weather Stations






























Interactive Weather Map New forecast layout! Learn more

10-Day Weather Forecast

Advertisements
Track Severe Weather on mobile